Terminal Aerodrome Forecast
Issued by NWS

Home | Current Version | Previous Version | Text Only | Print | Product List | Glossary On
Versions: 1 2 3 4 5 6 7 8 9 10 11 12 13
912
FTUS41 KGYX 112341
TAFPSM
TAF
KPSM 112341Z 1200/1224 29006KT P6SM SCT060 BKN250
     FM120500 04004KT P6SM BKN080
     FM121300 08007KT 4SM -SN OVC014
     FM121500 09008KT 1 1/2SM RA OVC010
     FM121800 09008KT 1SM RA OVC010 WS020/13035KT=

USA.gov is the U.S. government's official web portal to all federal, state and local government web resources and services.